sensor_id;sensor_type;location;lat;lon;timestamp;pressure;altitude;pressure_sealevel;temperature;humidity
57562;BME280;43397;51.530;5.974;2023-02-20T00:00:48;102213.41;;;5.28;100.00
57562;BME280;43397;51.530;5.974;2023-02-20T00:03:15;102218.16;;;5.39;100.00
57562;BME280;43397;51.530;5.974;2023-02-20T00:05:41;102209.94;;;5.29;100.00
57562;BME280;43397;51.530;5.974;2023-02-20T00:08:07;102207.72;;;5.42;100.00
57562;BME280;43397;51.530;5.974;2023-02-20T00:10:34;102206.19;;;5.48;100.00
57562;BME280;43397;51.530;5.974;2023-02-20T00:13:00;102214.09;;;5.48;100.00
57562;BME280;43397;51.530;5.974;2023-02-20T00:15:27;102208.09;;;5.52;100.00
57562;BME280;43397;51.530;5.974;2023-02-20T00:17:53;102204.41;;;5.47;100.00
57562;BME280;43397;51.530;5.974;2023-02-20T00:20:20;102202.66;;;5.48;100.00
57562;BME280;43397;51.530;5.974;2023-02-20T00:22:46;102200.53;;;5.63;100.00
57562;BME280;43397;51.530;5.974;2023-02-20T00:25:14;102193.94;;;5.50;100.00
57562;BME280;43397;51.530;5.974;2023-02-20T00:27:42;102192.03;;;5.45;100.00
57562;BME280;43397;51.530;5.974;2023-02-20T00:30:12;102195.97;;;5.57;100.00
57562;BME280;43397;51.530;5.974;2023-02-20T00:32:39;102191.66;;;5.60;100.00
57562;BME280;43397;51.530;5.974;2023-02-20T00:35:05;102184.72;;;5.63;100.00
57562;BME280;43397;51.530;5.974;2023-02-20T00:37:31;102179.44;;;5.63;100.00
57562;BME280;43397;51.530;5.974;2023-02-20T00:39:58;102176.81;;;5.63;100.00
57562;BME280;43397;51.530;5.974;2023-02-20T00:42:23;102158.50;;;5.68;100.00
57562;BME280;43397;51.530;5.974;2023-02-20T00:44:51;102170.56;;;5.60;100.00
57562;BME280;43397;51.530;5.974;2023-02-20T00:47:16;102173.50;;;5.70;100.00
57562;BME280;43397;51.530;5.974;2023-02-20T00:49:42;102163.09;;;5.73;100.00
57562;BME280;43397;51.530;5.974;2023-02-20T00:52:08;102172.31;;;5.61;100.00
57562;BME280;43397;51.530;5.974;2023-02-20T00:54:34;102166.16;;;5.60;100.00
57562;BME280;43397;51.530;5.974;2023-02-20T00:56:59;102167.94;;;5.61;100.00
57562;BME280;43397;51.530;5.974;2023-02-20T00:59:25;102147.78;;;5.63;100.00
57562;BME280;43397;51.530;5.974;2023-02-20T01:01:52;102140.47;;;5.54;100.00
57562;BME280;43397;51.530;5.974;2023-02-20T01:04:18;102133.66;;;5.61;100.00
57562;BME280;43397;51.530;5.974;2023-02-20T01:06:44;102124.44;;;5.48;100.00
57562;BME280;43397;51.530;5.974;2023-02-20T01:09:10;102111.38;;;5.51;100.00
57562;BME280;43397;51.530;5.974;2023-02-20T01:11:36;102124.44;;;5.48;100.00
57562;BME280;43397;51.530;5.974;2023-02-20T01:14:02;102132.81;;;5.62;100.00
57562;BME280;43397;51.530;5.974;2023-02-20T01:16:27;102126.47;;;5.57;100.00
57562;BME280;43397;51.530;5.974;2023-02-20T01:18:54;102127.75;;;5.68;100.00
57562;BME280;43397;51.530;5.974;2023-02-20T01:21:20;102133.84;;;5.67;100.00
57562;BME280;43397;51.530;5.974;2023-02-20T01:23:46;102136.94;;;5.54;100.00
57562;BME280;43397;51.530;5.974;2023-02-20T01:26:12;102137.97;;;5.59;100.00
57562;BME280;43397;51.530;5.974;2023-02-20T01:28:37;102133.94;;;5.70;100.00
57562;BME280;43397;51.530;5.974;2023-02-20T01:31:03;102131.88;;;5.60;100.00
57562;BME280;43397;51.530;5.974;2023-02-20T01:33:29;102133.50;;;5.56;100.00
57562;BME280;43397;51.530;5.974;2023-02-20T01:35:56;102126.75;;;5.65;100.00
57562;BME280;43397;51.530;5.974;2023-02-20T01:38:22;102129.53;;;5.69;100.00
57562;BME280;43397;51.530;5.974;2023-02-20T01:40:48;102128.22;;;5.56;100.00
57562;BME280;43397;51.530;5.974;2023-02-20T01:43:14;102113.13;;;5.51;100.00
57562;BME280;43397;51.530;5.974;2023-02-20T01:45:41;102098.94;;;5.47;100.00
57562;BME280;43397;51.530;5.974;2023-02-20T01:48:18;102098.19;;;5.51;100.00
57562;BME280;43397;51.530;5.974;2023-02-20T01:50:44;102097.09;;;5.45;100.00
57562;BME280;43397;51.530;5.974;2023-02-20T01:53:14;102105.09;;;5.48;100.00
57562;BME280;43397;51.530;5.974;2023-02-20T01:55:43;102096.25;;;5.46;100.00
57562;BME280;43397;51.530;5.974;2023-02-20T01:58:16;102096.50;;;5.53;100.00
57562;BME280;43397;51.530;5.974;2023-02-20T02:00:42;102064.44;;;5.41;100.00
57562;BME280;43397;51.530;5.974;2023-02-20T02:03:10;102055.59;;;5.39;100.00
57562;BME280;43397;51.530;5.974;2023-02-20T02:05:36;102051.28;;;5.41;100.00
57562;BME280;43397;51.530;5.974;2023-02-20T02:08:05;102045.09;;;5.41;100.00
57562;BME280;43397;51.530;5.974;2023-02-20T02:10:35;102033.47;;;5.34;100.00
57562;BME280;43397;51.530;5.974;2023-02-20T02:13:02;102025.59;;;5.35;100.00
57562;BME280;43397;51.530;5.974;2023-02-20T02:15:29;102031.88;;;5.39;100.00
57562;BME280;43397;51.530;5.974;2023-02-20T02:18:19;102031.13;;;5.43;100.00
57562;BME280;43397;51.530;5.974;2023-02-20T02:24:14;102040.97;;;5.49;100.00
57562;BME280;43397;51.530;5.974;2023-02-20T02:27:05;102040.66;;;5.40;100.00
57562;BME280;43397;51.530;5.974;2023-02-20T02:30:06;102026.78;;;5.45;100.00
57562;BME280;43397;51.530;5.974;2023-02-20T02:36:13;102034.44;;;5.38;100.00
57562;BME280;43397;51.530;5.974;2023-02-20T02:38:46;102026.53;;;5.38;100.00
57562;BME280;43397;51.530;5.974;2023-02-20T02:41:19;102022.41;;;5.46;100.00
57562;BME280;43397;51.530;5.974;2023-02-20T02:43:51;102009.03;;;5.40;100.00
57562;BME280;43397;51.530;5.974;2023-02-20T02:46:23;102016.06;;;5.39;100.00
57562;BME280;43397;51.530;5.974;2023-02-20T02:48:55;102010.03;;;5.43;100.00
57562;BME280;43397;51.530;5.974;2023-02-20T02:51:27;102007.25;;;5.39;100.00
57562;BME280;43397;51.530;5.974;2023-02-20T02:54:04;102012.66;;;5.43;100.00
57562;BME280;43397;51.530;5.974;2023-02-20T02:56:33;102015.22;;;5.40;100.00
57562;BME280;43397;51.530;5.974;2023-02-20T02:58:59;102010.78;;;5.39;100.00
57562;BME280;43397;51.530;5.974;2023-02-20T03:01:25;102005.44;;;5.38;100.00
57562;BME280;43397;51.530;5.974;2023-02-20T03:03:52;102009.16;;;5.43;100.00
57562;BME280;43397;51.530;5.974;2023-02-20T03:06:21;101998.59;;;5.43;100.00
57562;BME280;43397;51.530;5.974;2023-02-20T03:08:55;101993.94;;;5.34;100.00
57562;BME280;43397;51.530;5.974;2023-02-20T03:11:26;101998.63;;;5.44;100.00
57562;BME280;43397;51.530;5.974;2023-02-20T03:13:56;101987.16;;;5.42;100.00
57562;BME280;43397;51.530;5.974;2023-02-20T03:16:28;101981.03;;;5.43;100.00
57562;BME280;43397;51.530;5.974;2023-02-20T03:19:00;101988.78;;;5.39;100.00
57562;BME280;43397;51.530;5.974;2023-02-20T03:21:27;101984.13;;;5.30;100.00
57562;BME280;43397;51.530;5.974;2023-02-20T03:24:00;101989.63;;;5.38;100.00
57562;BME280;43397;51.530;5.974;2023-02-20T03:26:30;101995.69;;;5.33;100.00
57562;BME280;43397;51.530;5.974;2023-02-20T03:29:00;101994.28;;;5.45;100.00
57562;BME280;43397;51.530;5.974;2023-02-20T03:31:27;101989.13;;;5.49;100.00
57562;BME280;43397;51.530;5.974;2023-02-20T03:33:58;101990.34;;;5.61;100.00
57562;BME280;43397;51.530;5.974;2023-02-20T03:36:30;101988.84;;;5.69;100.00
57562;BME280;43397;51.530;5.974;2023-02-20T03:39:03;101975.06;;;5.79;100.00
57562;BME280;43397;51.530;5.974;2023-02-20T03:41:32;101976.94;;;5.83;100.00
57562;BME280;43397;51.530;5.974;2023-02-20T03:43:59;101975.06;;;5.79;100.00
57562;BME280;43397;51.530;5.974;2023-02-20T03:46:32;101971.78;;;5.86;100.00
57562;BME280;43397;51.530;5.974;2023-02-20T03:49:03;101973.72;;;5.93;100.00
57562;BME280;43397;51.530;5.974;2023-02-20T03:51:30;101986.13;;;5.94;100.00
57562;BME280;43397;51.530;5.974;2023-02-20T03:53:58;101980.09;;;6.00;100.00
57562;BME280;43397;51.530;5.974;2023-02-20T03:56:28;101978.34;;;5.99;100.00
57562;BME280;43397;51.530;5.974;2023-02-20T03:58:58;101991.56;;;6.01;100.00
57562;BME280;43397;51.530;5.974;2023-02-20T04:01:27;101979.34;;;6.04;100.00
57562;BME280;43397;51.530;5.974;2023-02-20T04:03:55;101982.06;;;6.07;100.00
57562;BME280;43397;51.530;5.974;2023-02-20T04:06:25;101979.72;;;6.16;100.00
57562;BME280;43397;51.530;5.974;2023-02-20T04:08:57;101975.84;;;6.05;100.00
57562;BME280;43397;51.530;5.974;2023-02-20T04:11:27;101978.97;;;6.22;100.00
57562;BME280;43397;51.530;5.974;2023-02-20T04:13:56;101978.63;;;6.10;100.00
57562;BME280;43397;51.530;5.974;2023-02-20T04:16:23;101977.78;;;6.11;100.00
57562;BME280;43397;51.530;5.974;2023-02-20T04:18:49;101974.38;;;6.15;100.00
57562;BME280;43397;51.530;5.974;2023-02-20T04:21:19;101975.22;;;6.14;100.00
57562;BME280;43397;51.530;5.974;2023-02-20T04:23:49;101970.56;;;6.05;100.00
57562;BME280;43397;51.530;5.974;2023-02-20T04:26:20;101967.28;;;6.14;100.00
57562;BME280;43397;51.530;5.974;2023-02-20T04:28:47;101973.50;;;6.14;100.00
57562;BME280;43397;51.530;5.974;2023-02-20T04:31:15;101971.56;;;6.09;100.00
57562;BME280;43397;51.530;5.974;2023-02-20T04:33:41;101969.91;;;6.12;100.00
57562;BME280;43397;51.530;5.974;2023-02-20T04:36:07;101967.69;;;6.28;100.00
57562;BME280;43397;51.530;5.974;2023-02-20T04:38:33;101973.59;;;6.19;100.00
57562;BME280;43397;51.530;5.974;2023-02-20T04:40:59;101965.00;;;6.26;100.00
57562;BME280;43397;51.530;5.974;2023-02-20T04:43:25;101963.88;;;6.18;100.00
57562;BME280;43397;51.530;5.974;2023-02-20T04:45:53;101964.00;;;6.21;100.00
57562;BME280;43397;51.530;5.974;2023-02-20T04:48:18;101974.78;;;6.30;100.00
57562;BME280;43397;51.530;5.974;2023-02-20T04:50:44;101981.09;;;6.35;100.00
57562;BME280;43397;51.530;5.974;2023-02-20T04:53:10;101975.78;;;6.34;100.00
57562;BME280;43397;51.530;5.974;2023-02-20T04:55:35;101982.06;;;6.39;100.00
57562;BME280;43397;51.530;5.974;2023-02-20T04:58:01;101978.78;;;6.48;100.00
57562;BME280;43397;51.530;5.974;2023-02-20T05:00:27;101985.53;;;6.36;100.00
57562;BME280;43397;51.530;5.974;2023-02-20T05:02:54;101983.19;;;6.49;100.00
57562;BME280;43397;51.530;5.974;2023-02-20T05:05:22;101999.84;;;6.45;100.00
57562;BME280;43397;51.530;5.974;2023-02-20T05:07:53;101979.19;;;6.30;100.00
57562;BME280;43397;51.530;5.974;2023-02-20T05:10:20;101991.66;;;6.35;100.00
57562;BME280;43397;51.530;5.974;2023-02-20T05:12:46;101986.47;;;6.40;100.00
57562;BME280;43397;51.530;5.974;2023-02-20T05:15:13;101972.44;;;6.41;100.00
57562;BME280;43397;51.530;5.974;2023-02-20T05:17:39;101976.22;;;6.51;100.00
57562;BME280;43397;51.530;5.974;2023-02-20T05:20:07;101979.66;;;6.48;100.00
57562;BME280;43397;51.530;5.974;2023-02-20T05:22:33;101979.91;;;6.57;100.00
57562;BME280;43397;51.530;5.974;2023-02-20T05:24:58;101968.16;;;6.46;100.00
57562;BME280;43397;51.530;5.974;2023-02-20T05:27:27;101981.75;;;6.60;100.00
57562;BME280;43397;51.530;5.974;2023-02-20T05:29:54;101974.72;;;6.61;100.00
57562;BME280;43397;51.530;5.974;2023-02-20T05:32:21;101970.41;;;6.64;100.00
57562;BME280;43397;51.530;5.974;2023-02-20T05:34:48;101966.78;;;6.61;100.00
57562;BME280;43397;51.530;5.974;2023-02-20T05:37:16;101975.44;;;6.55;100.00
57562;BME280;43397;51.530;5.974;2023-02-20T05:39:42;101965.81;;;6.57;100.00
57562;BME280;43397;51.530;5.974;2023-02-20T05:42:08;101972.06;;;6.61;100.00
57562;BME280;43397;51.530;5.974;2023-02-20T05:44:34;101974.91;;;6.68;100.00
57562;BME280;43397;51.530;5.974;2023-02-20T05:47:01;101967.91;;;6.69;100.00
57562;BME280;43397;51.530;5.974;2023-02-20T05:49:27;101969.63;;;6.68;100.00
57562;BME280;43397;51.530;5.974;2023-02-20T05:51:55;101969.56;;;6.65;100.00
57562;BME280;43397;51.530;5.974;2023-02-20T05:54:23;101962.50;;;6.64;100.00
57562;BME280;43397;51.530;5.974;2023-02-20T05:56:50;101970.41;;;6.64;100.00
57562;BME280;43397;51.530;5.974;2023-02-20T05:59:17;101958.31;;;6.74;100.00
57562;BME280;43397;51.530;5.974;2023-02-20T06:01:43;101958.44;;;6.78;100.00
57562;BME280;43397;51.530;5.974;2023-02-20T06:04:09;101973.94;;;6.65;100.00
57562;BME280;43397;51.530;5.974;2023-02-20T06:06:37;101971.19;;;6.60;100.00
57562;BME280;43397;51.530;5.974;2023-02-20T06:09:05;101968.22;;;6.83;100.00
57562;BME280;43397;51.530;5.974;2023-02-20T06:11:33;101960.25;;;6.79;100.00
57562;BME280;43397;51.530;5.974;2023-02-20T06:13:59;101970.81;;;6.81;100.00
57562;BME280;43397;51.530;5.974;2023-02-20T06:16:27;101964.72;;;6.84;100.00
57562;BME280;43397;51.530;5.974;2023-02-20T06:18:53;101969.94;;;6.80;100.00
57562;BME280;43397;51.530;5.974;2023-02-20T06:21:19;101960.31;;;6.83;100.00
57562;BME280;43397;51.530;5.974;2023-02-20T06:23:45;101974.78;;;6.98;100.00
57562;BME280;43397;51.530;5.974;2023-02-20T06:26:12;101962.22;;;6.90;100.00
57562;BME280;43397;51.530;5.974;2023-02-20T06:28:39;101979.19;;;6.98;100.00
57562;BME280;43397;51.530;5.974;2023-02-20T06:31:05;101965.91;;;6.96;100.00
57562;BME280;43397;51.530;5.974;2023-02-20T06:33:31;101974.81;;;7.00;100.00
57562;BME280;43397;51.530;5.974;2023-02-20T06:35:57;101963.16;;;6.90;100.00
57562;BME280;43397;51.530;5.974;2023-02-20T06:38:23;101968.72;;;7.03;100.00
57562;BME280;43397;51.530;5.974;2023-02-20T06:40:49;101961.88;;;7.11;100.00
57562;BME280;43397;51.530;5.974;2023-02-20T06:43:16;101960.72;;;6.99;100.00
57562;BME280;43397;51.530;5.974;2023-02-20T06:45:43;101963.44;;;7.03;100.00
57562;BME280;43397;51.530;5.974;2023-02-20T06:48:10;101958.94;;;6.98;100.00
57562;BME280;43397;51.530;5.974;2023-02-20T06:50:36;101957.25;;;7.02;100.00
57562;BME280;43397;51.530;5.974;2023-02-20T06:53:02;101959.34;;;7.15;100.00
57562;BME280;43397;51.530;5.974;2023-02-20T06:55:28;101969.84;;;7.12;100.00
57562;BME280;43397;51.530;5.974;2023-02-20T06:57:53;101962.91;;;7.17;100.00
57562;BME280;43397;51.530;5.974;2023-02-20T07:00:19;101964.56;;;7.14;100.00
57562;BME280;43397;51.530;5.974;2023-02-20T07:02:46;101968.16;;;7.16;100.00
57562;BME280;43397;51.530;5.974;2023-02-20T07:05:12;101969.09;;;7.18;100.00
57562;BME280;43397;51.530;5.974;2023-02-20T07:07:38;101964.00;;;7.27;100.00
57562;BME280;43397;51.530;5.974;2023-02-20T07:10:05;101971.91;;;7.26;100.00
57562;BME280;43397;51.530;5.974;2023-02-20T07:12:32;101964.91;;;7.28;100.00
57562;BME280;43397;51.530;5.974;2023-02-20T07:14:58;101970.31;;;7.32;100.00
57562;BME280;43397;51.530;5.974;2023-02-20T07:17:24;101966.88;;;7.36;100.00
57562;BME280;43397;51.530;5.974;2023-02-20T07:19:51;101974.00;;;7.39;100.00
57562;BME280;43397;51.530;5.974;2023-02-20T07:22:17;101981.09;;;7.41;100.00
57562;BME280;43397;51.530;5.974;2023-02-20T07:24:43;101980.94;;;7.34;100.00
57562;BME280;43397;51.530;5.974;2023-02-20T07:27:08;101984.78;;;7.48;100.00
57562;BME280;43397;51.530;5.974;2023-02-20T07:29:34;101965.41;;;7.49;100.00
57562;BME280;43397;51.530;5.974;2023-02-20T07:32:00;101973.50;;;7.57;100.00
57562;BME280;43397;51.530;5.974;2023-02-20T07:34:25;101972.81;;;7.66;100.00
57562;BME280;43397;51.530;5.974;2023-02-20T07:36:53;101976.28;;;7.63;100.00
57562;BME280;43397;51.530;5.974;2023-02-20T07:39:19;101980.78;;;7.67;100.00
57562;BME280;43397;51.530;5.974;2023-02-20T07:41:45;101973.69;;;7.65;100.00
57562;BME280;43397;51.530;5.974;2023-02-20T07:44:11;101974.66;;;7.70;100.00
57562;BME280;43397;51.530;5.974;2023-02-20T07:46:37;101977.41;;;7.74;100.00
57562;BME280;43397;51.530;5.974;2023-02-20T07:49:04;101968.41;;;7.66;100.00
57562;BME280;43397;51.530;5.974;2023-02-20T07:51:30;101970.34;;;7.75;100.00
57562;BME280;43397;51.530;5.974;2023-02-20T07:53:57;101971.97;;;7.68;100.00
57562;BME280;43397;51.530;5.974;2023-02-20T07:56:23;101957.75;;;7.63;100.00
57562;BME280;43397;51.530;5.974;2023-02-20T07:58:49;101976.94;;;7.53;100.00
57562;BME280;43397;51.530;5.974;2023-02-20T08:01:16;101974.03;;;7.81;100.00
57562;BME280;43397;51.530;5.974;2023-02-20T08:03:41;101961.53;;;7.74;100.00
57562;BME280;43397;51.530;5.974;2023-02-20T08:06:07;101953.41;;;7.65;100.00
57562;BME280;43397;51.530;5.974;2023-02-20T08:08:33;101955.06;;;7.60;100.00
57562;BME280;43397;51.530;5.974;2023-02-20T08:11:00;101954.47;;;7.73;100.00
57562;BME280;43397;51.530;5.974;2023-02-20T08:13:26;101960.69;;;7.77;100.00
57562;BME280;43397;51.530;5.974;2023-02-20T08:15:53;101966.22;;;7.88;100.00
57562;BME280;43397;51.530;5.974;2023-02-20T08:18:19;101965.41;;;7.92;100.00
57562;BME280;43397;51.530;5.974;2023-02-20T08:20:45;101956.59;;;7.91;100.00
57562;BME280;43397;51.530;5.974;2023-02-20T08:23:15;101946.00;;;7.91;100.00
57562;BME280;43397;51.530;5.974;2023-02-20T08:25:41;101946.84;;;7.90;100.00
57562;BME280;43397;51.530;5.974;2023-02-20T08:28:08;101954.91;;;7.95;100.00
57562;BME280;43397;51.530;5.974;2023-02-20T08:30:34;101941.72;;;7.98;100.00
57562;BME280;43397;51.530;5.974;2023-02-20T08:33:00;101960.16;;;7.93;100.00
57562;BME280;43397;51.530;5.974;2023-02-20T08:35:25;101961.31;;;8.08;100.00
57562;BME280;43397;51.530;5.974;2023-02-20T08:37:51;101963.16;;;8.12;100.00
57562;BME280;43397;51.530;5.974;2023-02-20T08:40:17;101947.22;;;8.09;100.00
57562;BME280;43397;51.530;5.974;2023-02-20T08:42:43;101960.69;;;8.19;100.00
57562;BME280;43397;51.530;5.974;2023-02-20T08:45:13;101960.47;;;8.09;100.00
57562;BME280;43397;51.530;5.974;2023-02-20T08:47:38;101972.03;;;8.14;100.00
57562;BME280;43397;51.530;5.974;2023-02-20T08:50:05;101965.91;;;8.15;100.00
57562;BME280;43397;51.530;5.974;2023-02-20T08:52:31;101954.72;;;8.31;100.00
57562;BME280;43397;51.530;5.974;2023-02-20T08:54:56;101954.84;;;8.37;100.00
57562;BME280;43397;51.530;5.974;2023-02-20T08:57:22;101961.22;;;8.46;100.00
57562;BME280;43397;51.530;5.974;2023-02-20T08:59:49;101957.44;;;8.36;100.00
57562;BME280;43397;51.530;5.974;2023-02-20T09:02:18;101956.78;;;8.46;100.00
57562;BME280;43397;51.530;5.974;2023-02-20T09:04:44;101955.88;;;8.44;100.00
57562;BME280;43397;51.530;5.974;2023-02-20T09:07:11;101959.09;;;8.28;100.00
57562;BME280;43397;51.530;5.974;2023-02-20T09:09:37;101951.47;;;8.44;100.00
57562;BME280;43397;51.530;5.974;2023-02-20T09:12:03;101964.13;;;8.61;100.00
57562;BME280;43397;51.530;5.974;2023-02-20T09:14:29;101963.16;;;8.57;100.00
57562;BME280;43397;51.530;5.974;2023-02-20T09:16:55;101947.88;;;8.41;100.00
57562;BME280;43397;51.530;5.974;2023-02-20T09:19:22;101964.16;;;8.64;100.00
57562;BME280;43397;51.530;5.974;2023-02-20T09:21:47;101959.72;;;8.61;100.00
57562;BME280;43397;51.530;5.974;2023-02-20T09:24:13;101954.50;;;8.64;100.00
57562;BME280;43397;51.530;5.974;2023-02-20T09:26:39;101965.09;;;8.66;100.00
57562;BME280;43397;51.530;5.974;2023-02-20T09:29:05;101961.84;;;8.84;100.00
57562;BME280;43397;51.530;5.974;2023-02-20T09:31:30;101965.09;;;8.66;100.00
57562;BME280;43397;51.530;5.974;2023-02-20T09:33:56;101963.44;;;8.73;100.00
57562;BME280;43397;51.530;5.974;2023-02-20T09:36:23;101956.38;;;8.72;100.00
57562;BME280;43397;51.530;5.974;2023-02-20T09:38:49;101953.13;;;8.90;100.00
57562;BME280;43397;51.530;5.974;2023-02-20T09:41:24;101955.47;;;8.73;100.00
57562;BME280;43397;51.530;5.974;2023-02-20T09:43:57;101960.72;;;8.68;100.00
57562;BME280;43397;51.530;5.974;2023-02-20T09:46:26;101949.44;;;8.81;100.00
57562;BME280;43397;51.530;5.974;2023-02-20T09:49:02;101947.38;;;8.63;100.00
57562;BME280;43397;51.530;5.974;2023-02-20T09:51:32;101953.81;;;8.79;100.00
57562;BME280;43397;51.530;5.974;2023-02-20T09:54:03;101958.56;;;8.97;100.00
57562;BME280;43397;51.530;5.974;2023-02-20T09:56:33;101952.16;;;8.86;100.00
57562;BME280;43397;51.530;5.974;2023-02-20T09:59:04;101954.81;;;8.86;100.00
57562;BME280;43397;51.530;5.974;2023-02-20T10:01:33;101956.63;;;8.87;100.00
57562;BME280;43397;51.530;5.974;2023-02-20T10:04:03;101945.13;;;8.88;100.00
57562;BME280;43397;51.530;5.974;2023-02-20T10:06:33;101938.84;;;8.80;100.00
57562;BME280;43397;51.530;5.974;2023-02-20T10:09:00;101937.19;;;8.88;100.00
57562;BME280;43397;51.530;5.974;2023-02-20T10:11:45;101931.03;;;8.89;100.00
57562;BME280;43397;51.530;5.974;2023-02-20T10:14:32;101930.09;;;8.87;100.00
57562;BME280;43397;51.530;5.974;2023-02-20T10:17:07;101945.38;;;9.03;100.00
57562;BME280;43397;51.530;5.974;2023-02-20T10:19:40;101941.63;;;8.89;100.00
57562;BME280;43397;51.530;5.974;2023-02-20T10:22:13;101912.22;;;8.74;100.00
57562;BME280;43397;51.530;5.974;2023-02-20T10:24:50;101929.56;;;9.10;100.00
57562;BME280;43397;51.530;5.974;2023-02-20T10:27:28;101932.25;;;9.11;100.00
57562;BME280;43397;51.530;5.974;2023-02-20T10:29:55;101930.34;;;9.02;100.00
57562;BME280;43397;51.530;5.974;2023-02-20T10:32:24;101935.69;;;9.05;100.00
57562;BME280;43397;51.530;5.974;2023-02-20T10:34:56;101946.22;;;8.99;100.00
57562;BME280;43397;51.530;5.974;2023-02-20T10:37:27;101941.75;;;8.95;100.00
57562;BME280;43397;51.530;5.974;2023-02-20T10:40:01;101935.56;;;8.96;100.00
57562;BME280;43397;51.530;5.974;2023-02-20T10:42:30;101938.25;;;8.98;100.00
57562;BME280;43397;51.530;5.974;2023-02-20T10:45:00;101935.84;;;9.16;100.00
57562;BME280;43397;51.530;5.974;2023-02-20T10:47:29;101931.06;;;8.92;100.00
57562;BME280;43397;51.530;5.974;2023-02-20T10:50:02;101921.75;;;9.17;100.00
57562;BME280;43397;51.530;5.974;2023-02-20T10:52:35;101928.84;;;9.20;100.00
57562;BME280;43397;51.530;5.974;2023-02-20T10:55:05;101932.34;;;9.19;100.00
57562;BME280;43397;51.530;5.974;2023-02-20T10:57:36;101916.38;;;9.14;100.00
57562;BME280;43397;51.530;5.974;2023-02-20T11:00:07;101922.75;;;9.25;100.00
57562;BME280;43397;51.530;5.974;2023-02-20T11:02:39;101918.38;;;9.31;100.00
57562;BME280;43397;51.530;5.974;2023-02-20T11:05:09;101930.81;;;9.33;100.00
57562;BME280;43397;51.530;5.974;2023-02-20T11:07:37;101927.56;;;9.54;100.00
57562;BME280;43397;51.530;5.974;2023-02-20T11:10:04;101938.03;;;9.43;100.00
57562;BME280;43397;51.530;5.974;2023-02-20T11:12:33;101925.53;;;9.36;100.00
57562;BME280;43397;51.530;5.974;2023-02-20T11:15:05;101907.72;;;9.27;100.00
57562;BME280;43397;51.530;5.974;2023-02-20T11:17:31;101923.72;;;9.32;100.00
57562;BME280;43397;51.530;5.974;2023-02-20T11:19:58;101917.47;;;9.29;100.00
57562;BME280;43397;51.530;5.974;2023-02-20T11:22:42;101923.03;;;9.47;100.00
57562;BME280;43397;51.530;5.974;2023-02-20T11:25:17;101902.50;;;9.34;100.00
57562;BME280;43397;51.530;5.974;2023-02-20T11:27:44;101904.19;;;9.27;100.00
57562;BME280;43397;51.530;5.974;2023-02-20T11:30:26;101913.09;;;9.31;100.00
57562;BME280;43397;51.530;5.974;2023-02-20T11:32:59;101917.28;;;9.16;100.00
57562;BME280;43397;51.530;5.974;2023-02-20T11:35:27;101923.56;;;9.21;100.00
57562;BME280;43397;51.530;5.974;2023-02-20T11:38:30;101915.84;;;9.40;100.00
57562;BME280;43397;51.530;5.974;2023-02-20T11:41:20;101917.53;;;9.33;100.00
57562;BME280;43397;51.530;5.974;2023-02-20T11:43:48;101921.97;;;9.33;100.00
57562;BME280;43397;51.530;5.974;2023-02-20T11:46:28;101882.09;;;9.30;100.00
57562;BME280;43397;51.530;5.974;2023-02-20T11:48:59;101916.56;;;9.26;100.00
57562;BME280;43397;51.530;5.974;2023-02-20T11:51:31;101898.09;;;9.36;100.00
57562;BME280;43397;51.530;5.974;2023-02-20T11:54:07;101904.22;;;9.29;100.00
57562;BME280;43397;51.530;5.974;2023-02-20T11:56:34;101909.66;;;9.39;100.00
57562;BME280;43397;51.530;5.974;2023-02-20T11:59:24;101922.19;;;9.51;100.00
57562;BME280;43397;51.530;5.974;2023-02-20T12:01:51;101905.31;;;9.43;100.00
57562;BME280;43397;51.530;5.974;2023-02-20T12:04:19;101905.22;;;9.38;100.00
57562;BME280;43397;51.530;5.974;2023-02-20T12:06:45;101901.59;;;9.30;100.00
57562;BME280;43397;51.530;5.974;2023-02-20T12:09:14;101893.66;;;9.33;100.00
57562;BME280;43397;51.530;5.974;2023-02-20T12:11:41;101896.91;;;9.14;100.00
57562;BME280;43397;51.530;5.974;2023-02-20T12:14:11;101896.28;;;9.30;100.00
57562;BME280;43397;51.530;5.974;2023-02-20T12:19:43;101892.59;;;9.20;100.00
57562;BME280;43397;51.530;5.974;2023-02-20T12:22:17;101888.06;;;9.13;100.00
57562;BME280;43397;51.530;5.974;2023-02-20T12:25:01;101881.94;;;9.17;100.00
57562;BME280;43397;51.530;5.974;2023-02-20T12:27:48;101886.75;;;9.46;100.00
57562;BME280;43397;51.530;5.974;2023-02-20T12:30:24;101891.88;;;9.32;100.00
57562;BME280;43397;51.530;5.974;2023-02-20T12:32:58;101871.63;;;9.39;100.00
57562;BME280;43397;51.530;5.974;2023-02-20T12:35:29;101858.31;;;9.34;100.00
57562;BME280;43397;51.530;5.974;2023-02-20T12:38:13;101862.81;;;9.41;100.00
57562;BME280;43397;51.530;5.974;2023-02-20T12:41:07;101860.97;;;9.36;100.00
57562;BME280;43397;51.530;5.974;2023-02-20T12:43:41;101864.56;;;9.39;100.00
57562;BME280;43397;51.530;5.974;2023-02-20T12:46:14;101841.38;;;9.24;100.00
57562;BME280;43397;51.530;5.974;2023-02-20T12:48:53;101826.53;;;9.39;100.00
57562;BME280;43397;51.530;5.974;2023-02-20T12:51:27;101837.16;;;9.42;100.00
57562;BME280;43397;51.530;5.974;2023-02-20T12:54:11;101817.75;;;9.46;100.00
57562;BME280;43397;51.530;5.974;2023-02-20T12:56:51;101811.56;;;9.45;100.00
57562;BME280;43397;51.530;5.974;2023-02-20T12:59:25;101804.66;;;9.61;100.00
57562;BME280;43397;51.530;5.974;2023-02-20T13:01:52;101775.41;;;9.57;100.00
57562;BME280;43397;51.530;5.974;2023-02-20T13:04:26;101791.38;;;9.58;100.00
57562;BME280;43397;51.530;5.974;2023-02-20T13:06:59;101798.53;;;9.67;100.00
57562;BME280;43397;51.530;5.974;2023-02-20T13:09:30;101782.63;;;9.70;100.00